Time;durP1;ratioP1;P1;durP2;ratioP2;P2;SDS_P1;SDS_P2;PMS_P1;PMS_P2;Temp;Humidity;BMP_temperature;BMP_pressure;BME280_temperature;BME280_humidity;BME280_pressure;Samples;Min_cycle;Max_cycle;Signal;HPM_P1;HPM_P2
2021/08/25 00:01:41;;;;;;;2.58;1.70;;;18.40;63.50;;;;;;5106657;28;20108;-81
2021/08/25 00:04:07;;;;;;;1.95;1.38;;;18.40;63.50;;;;;;5120605;28;20023;-80
2021/08/25 00:06:32;;;;;;;2.42;1.40;;;18.40;63.60;;;;;;5126263;28;20040;-80
2021/08/25 00:08:59;;;;;;;2.80;1.52;;;18.30;63.50;;;;;;5112363;28;20491;-80
2021/08/25 00:11:25;;;;;;;1.48;1.20;;;18.30;63.60;;;;;;5099129;28;20062;-80
2021/08/25 00:13:51;;;;;;;2.08;1.40;;;18.30;63.60;;;;;;5114907;28;20063;-80
2021/08/25 00:16:18;;;;;;;1.88;1.35;;;18.30;63.70;;;;;;5126388;28;20042;-80
2021/08/25 00:18:44;;;;;;;2.17;1.40;;;18.30;63.80;;;;;;5125099;28;20032;-80
2021/08/25 00:21:10;;;;;;;1.42;1.20;;;18.30;63.90;;;;;;5109041;28;20039;-80
2021/08/25 00:23:36;;;;;;;1.30;1.20;;;18.20;63.80;;;;;;5118171;28;20100;-80
2021/08/25 00:26:03;;;;;;;1.60;1.20;;;18.20;63.80;;;;;;5098107;28;20059;-80
2021/08/25 00:28:29;;;;;;;1.95;1.40;;;18.20;63.90;;;;;;5099656;28;20032;-80
2021/08/25 00:30:55;;;;;;;1.95;1.60;;;18.10;63.70;;;;;;5100828;28;20529;-80
2021/08/25 00:33:21;;;;;;;1.60;1.35;;;18.20;64.00;;;;;;5087231;28;20052;-81
2021/08/25 00:35:47;;;;;;;2.17;1.40;;;18.10;63.90;;;;;;5106213;28;20051;-81
2021/08/25 00:38:13;;;;;;;2.60;1.45;;;18.10;63.90;;;;;;5110187;28;20042;-81
2021/08/25 00:40:39;;;;;;;1.55;1.35;;;18.10;64.00;;;;;;5123697;28;20054;-80
2021/08/25 00:43:10;;;;;;;1.25;1.17;;;18.00;63.90;;;;;;5116628;28;20080;-80
2021/08/25 00:45:43;;;;;;;0.95;0.95;;;18.00;64.00;;;;;;5117385;28;20093;-80
2021/08/25 00:48:12;;;;;;;1.20;1.10;;;18.00;64.10;;;;;;5118934;28;20851;-79
2021/08/25 00:50:38;;;;;;;1.55;1.42;;;18.00;64.10;;;;;;5104903;28;20260;-80
2021/08/25 00:53:08;;;;;;;2.63;1.75;;;17.90;64.00;;;;;;5106173;28;20050;-81
2021/08/25 00:55:40;;;;;;;1.77;1.17;;;17.90;64.10;;;;;;5119649;28;20038;-79
2021/08/25 00:58:08;;;;;;;1.50;1.25;;;17.90;64.10;;;;;;5117598;28;20031;-80
2021/08/25 01:00:45;;;;;;;1.70;1.40;;;17.90;64.20;;;;;;5095159;28;20036;-80
2021/08/25 01:03:18;;;;;;;1.40;1.30;;;17.90;64.30;;;;;;5082277;28;20032;-80
2021/08/25 01:05:47;;;;;;;1.50;1.40;;;17.80;64.10;;;;;;5113492;28;20106;-80
2021/08/25 01:08:15;;;;;;;2.17;1.73;;;17.80;64.20;;;;;;5097932;28;20024;-80
2021/08/25 01:10:41;;;;;;;2.15;1.50;;;17.80;64.20;;;;;;5095235;28;20127;-81
2021/08/25 01:13:10;;;;;;;2.30;1.25;;;17.80;64.30;;;;;;5083815;28;20060;-80
2021/08/25 01:15:38;;;;;;;3.63;1.95;;;17.80;64.40;;;;;;5076076;28;20297;-80
2021/08/25 01:18:15;;;;;;;1.63;1.50;;;17.80;64.50;;;;;;5081840;28;20062;-82
2021/08/25 01:20:48;;;;;;;1.67;1.40;;;17.70;64.40;;;;;;5088000;28;20040;-81
2021/08/25 01:23:22;;;;;;;3.00;1.48;;;17.70;64.50;;;;;;5075097;28;20031;-81
2021/08/25 01:25:56;;;;;;;2.33;1.40;;;17.70;64.50;;;;;;5111570;28;20036;-81
2021/08/25 01:28:27;;;;;;;2.28;1.60;;;17.70;64.50;;;;;;5093625;28;20211;-82
2021/08/25 01:30:53;;;;;;;2.17;1.45;;;17.70;64.60;;;;;;5103749;28;20036;-82
2021/08/25 01:33:24;;;;;;;3.45;1.20;;;17.70;64.70;;;;;;5092359;27;20524;-82
2021/08/25 01:35:50;;;;;;;2.75;1.45;;;17.70;64.70;;;;;;5055753;28;20365;-82
2021/08/25 01:38:43;;;;;;;1.80;1.52;;;17.60;64.60;;;;;;5089548;28;20023;-83
2021/08/25 01:41:09;;;;;;;2.30;1.50;;;17.70;64.80;;;;;;5114184;28;20096;-83
2021/08/25 01:43:35;;;;;;;1.55;1.45;;;17.60;64.60;;;;;;5095340;28;20034;-82
2021/08/25 01:46:01;;;;;;;1.35;1.25;;;17.60;64.60;;;;;;5100015;28;20541;-81
2021/08/25 01:48:32;;;;;;;2.45;1.60;;;17.60;64.70;;;;;;5075796;28;20032;-81
2021/08/25 01:50:58;;;;;;;1.55;1.45;;;17.60;64.80;;;;;;5076070;28;20032;-82
2021/08/25 01:53:24;;;;;;;2.30;1.70;;;17.60;64.80;;;;;;5076312;28;20495;-81
2021/08/25 01:55:50;;;;;;;1.83;1.65;;;17.60;64.80;;;;;;5076340;28;20025;-81
2021/08/25 01:58:16;;;;;;;1.60;1.50;;;17.60;64.80;;;;;;5076480;28;20466;-82
2021/08/25 02:00:42;;;;;;;2.65;1.60;;;17.60;64.80;;;;;;5075613;28;20113;-81
2021/08/25 02:03:08;;;;;;;3.25;1.50;;;17.60;64.90;;;;;;5076354;28;20021;-81
2021/08/25 02:05:34;;;;;;;5.07;1.60;;;17.60;64.90;;;;;;5076303;28;20035;-81
2021/08/25 02:08:00;;;;;;;2.00;1.50;;;17.60;65.00;;;;;;5075602;28;20028;-81
2021/08/25 02:10:26;;;;;;;2.63;1.70;;;17.60;65.00;;;;;;5075297;28;20048;-81
2021/08/25 02:12:52;;;;;;;2.25;1.45;;;17.60;65.00;;;;;;5087907;28;20036;-81
2021/08/25 02:15:18;;;;;;;3.88;1.63;;;17.60;65.00;;;;;;5093466;28;20051;-80
2021/08/25 02:17:44;;;;;;;2.85;1.60;;;17.60;65.00;;;;;;5091497;28;20036;-81
2021/08/25 02:20:10;;;;;;;2.47;1.67;;;17.60;65.00;;;;;;5094163;28;20047;-80
2021/08/25 02:22:36;;;;;;;1.55;1.30;;;17.60;65.10;;;;;;5093935;28;20100;-80
2021/08/25 02:25:02;;;;;;;2.03;1.48;;;17.60;65.10;;;;;;5093632;28;20036;-80
2021/08/25 02:27:28;;;;;;;1.58;1.33;;;17.60;65.10;;;;;;5095350;28;20036;-80
2021/08/25 02:29:57;;;;;;;1.85;1.60;;;17.60;65.10;;;;;;5092912;28;20032;-81
2021/08/25 02:32:24;;;;;;;2.55;1.60;;;17.60;65.20;;;;;;5095723;28;20086;-81
2021/08/25 02:34:51;;;;;;;2.47;1.60;;;17.60;65.20;;;;;;5102000;28;20032;-83
2021/08/25 02:37:17;;;;;;;2.33;1.60;;;17.60;65.20;;;;;;5098079;28;20038;-82
2021/08/25 02:39:44;;;;;;;2.45;1.73;;;17.60;65.20;;;;;;5098428;28;20540;-81
2021/08/25 02:42:11;;;;;;;2.45;1.52;;;17.60;65.20;;;;;;5097306;28;20024;-81
2021/08/25 02:44:38;;;;;;;1.50;1.40;;;17.60;65.20;;;;;;5098692;28;20032;-81
2021/08/25 02:47:04;;;;;;;2.20;1.65;;;17.60;65.20;;;;;;5098510;28;20035;-81
2021/08/25 02:49:31;;;;;;;1.63;1.30;;;17.60;65.20;;;;;;5097892;28;20071;-82
2021/08/25 02:51:56;;;;;;;1.88;1.55;;;17.50;65.00;;;;;;5096257;28;20167;-81
2021/08/25 02:54:22;;;;;;;1.92;1.60;;;17.50;65.10;;;;;;5095648;28;20024;-82
2021/08/25 02:56:48;;;;;;;1.85;1.38;;;17.50;65.00;;;;;;5095194;28;20028;-81
2021/08/25 02:59:15;;;;;;;1.85;1.50;;;17.50;65.10;;;;;;5094917;28;20046;-82
2021/08/25 03:01:41;;;;;;;1.63;1.45;;;17.60;65.30;;;;;;5093867;28;20036;-82
2021/08/25 03:04:06;;;;;;;1.40;1.30;;;17.50;65.70;;;;;;5094624;28;20020;-82
2021/08/25 03:06:33;;;;;;;2.13;1.67;;;17.60;65.30;;;;;;5094071;28;20051;-84
2021/08/25 03:08:59;;;;;;;2.45;1.70;;;17.50;65.10;;;;;;5093376;28;20036;-83
2021/08/25 03:11:25;;;;;;;2.45;1.90;;;17.50;65.10;;;;;;5094607;28;20044;-83
2021/08/25 03:13:50;;;;;;;3.03;1.88;;;17.50;65.20;;;;;;5094895;28;20540;-84
2021/08/25 03:16:17;;;;;;;1.75;1.40;;;17.50;65.20;;;;;;5093251;28;20054;-82
2021/08/25 03:18:42;;;;;;;1.50;1.40;;;17.50;65.20;;;;;;5093556;28;20050;-82
2021/08/25 03:21:09;;;;;;;1.83;1.50;;;17.60;65.40;;;;;;5093748;28;20032;-82
2021/08/25 03:23:35;;;;;;;2.65;1.60;;;17.50;65.20;;;;;;5092306;28;20028;-82
2021/08/25 03:26:01;;;;;;;2.15;1.25;;;17.50;65.20;;;;;;5094124;28;20032;-82
2021/08/25 03:28:27;;;;;;;1.58;1.48;;;17.50;65.20;;;;;;5093713;28;20035;-81
2021/08/25 03:30:56;;;;;;;1.83;1.67;;;17.50;65.30;;;;;;5092012;28;20032;-82
2021/08/25 03:33:22;;;;;;;3.97;1.42;;;17.50;65.20;;;;;;5093394;28;20491;-82
2021/08/25 03:35:49;;;;;;;2.28;1.58;;;17.50;65.30;;;;;;5075370;28;20115;-82
2021/08/25 03:38:16;;;;;;;1.67;1.35;;;17.50;65.30;;;;;;5093111;28;20395;-83
2021/08/25 03:40:42;;;;;;;2.00;1.55;;;17.50;65.30;;;;;;5093467;28;20613;-83
2021/08/25 03:43:08;;;;;;;1.65;1.27;;;17.50;65.30;;;;;;5091270;28;20706;-82
2021/08/25 03:45:34;;;;;;;2.78;2.00;;;17.50;65.30;;;;;;5092465;28;20119;-81
2021/08/25 03:48:00;;;;;;;1.40;1.30;;;17.50;65.40;;;;;;5091594;28;20035;-82
2021/08/25 03:50:26;;;;;;;1.27;1.17;;;17.50;65.40;;;;;;5075072;28;20046;-81
2021/08/25 03:52:52;;;;;;;1.40;1.30;;;17.50;65.40;;;;;;5091665;28;20024;-82
2021/08/25 03:55:18;;;;;;;2.83;1.45;;;17.50;65.40;;;;;;5093405;28;20050;-81
2021/08/25 03:57:44;;;;;;;1.40;1.30;;;17.50;65.40;;;;;;5091857;28;20020;-82
2021/08/25 04:00:10;;;;;;;1.63;1.50;;;17.50;65.50;;;;;;5092715;28;20491;-81
2021/08/25 04:02:39;;;;;;;2.45;1.77;;;17.50;65.40;;;;;;5092692;28;20070;-82
2021/08/25 04:05:05;;;;;;;1.52;1.38;;;17.50;65.50;;;;;;5092454;28;20024;-83
2021/08/25 04:07:31;;;;;;;2.38;1.67;;;17.40;65.30;;;;;;5092985;28;20685;-84
2021/08/25 04:09:57;;;;;;;2.72;1.55;;;17.50;65.50;;;;;;5093061;28;20040;-84
2021/08/25 04:12:23;;;;;;;2.58;1.88;;;17.40;65.30;;;;;;5092862;28;20048;-81
2021/08/25 04:14:49;;;;;;;2.20;1.58;;;17.50;65.50;;;;;;5091290;28;20052;-81
2021/08/25 04:17:15;;;;;;;2.17;1.35;;;17.40;65.30;;;;;;5092569;28;20020;-81
2021/08/25 04:19:41;;;;;;;2.65;1.67;;;17.40;65.30;;;;;;5092564;28;20122;-82
2021/08/25 04:22:07;;;;;;;1.50;1.40;;;17.40;65.30;;;;;;5092532;28;20055;-81
2021/08/25 04:24:33;;;;;;;1.67;1.38;;;17.40;65.40;;;;;;5091512;28;20039;-82
2021/08/25 04:26:59;;;;;;;3.83;1.58;;;17.40;65.40;;;;;;5091340;28;20383;-82
2021/08/25 04:29:25;;;;;;;2.03;1.50;;;17.30;65.30;;;;;;5074240;28;21007;-82
2021/08/25 04:31:51;;;;;;;2.15;1.95;;;17.30;65.30;;;;;;5091320;28;20019;-82
2021/08/25 04:34:17;;;;;;;2.22;1.60;;;17.30;65.30;;;;;;5090909;28;20061;-81
2021/08/25 04:36:43;;;;;;;1.67;1.38;;;17.30;65.40;;;;;;5073787;28;20608;-81
2021/08/25 04:39:09;;;;;;;1.60;1.50;;;17.30;65.40;;;;;;5092382;28;20035;-81
2021/08/25 04:41:35;;;;;;;1.73;1.50;;;17.20;65.20;;;;;;5091825;28;20067;-81
2021/08/25 04:44:01;;;;;;;2.15;1.33;;;17.20;65.30;;;;;;5092094;28;20032;-82
2021/08/25 04:46:27;;;;;;;1.50;1.40;;;17.20;65.30;;;;;;5090789;28;20028;-81
2021/08/25 04:48:53;;;;;;;1.60;1.50;;;17.10;65.20;;;;;;5072641;28;20093;-81
2021/08/25 04:51:19;;;;;;;1.73;1.58;;;17.10;65.20;;;;;;5078722;28;20032;-81
2021/08/25 04:53:45;;;;;;;1.60;1.30;;;17.10;65.30;;;;;;5062379;28;20116;-81
2021/08/25 04:56:11;;;;;;;4.57;1.70;;;17.10;65.30;;;;;;5077400;28;20391;-80
2021/08/25 04:58:37;;;;;;;1.50;1.40;;;17.00;65.20;;;;;;5100442;28;20497;-80
2021/08/25 05:01:07;;;;;;;3.70;1.60;;;17.00;65.20;;;;;;5095333;28;20451;-80
2021/08/25 05:03:37;;;;;;;1.60;1.50;;;17.00;65.30;;;;;;5081303;28;20563;-81
2021/08/25 05:06:09;;;;;;;2.25;1.80;;;16.90;65.20;;;;;;5082172;28;20434;-80
2021/08/25 05:08:36;;;;;;;1.70;1.60;;;16.90;65.30;;;;;;5092814;28;20062;-82
2021/08/25 05:11:03;;;;;;;1.80;1.50;;;16.90;65.20;;;;;;5108126;28;20039;-81
2021/08/25 05:13:29;;;;;;;1.88;1.45;;;16.90;65.30;;;;;;5084657;28;20067;-81
2021/08/25 05:15:55;;;;;;;2.17;1.60;;;16.90;65.40;;;;;;5080231;28;20032;-80
2021/08/25 05:18:21;;;;;;;2.20;1.40;;;16.90;65.40;;;;;;5089976;28;20032;-84
2021/08/25 05:20:47;;;;;;;2.10;1.90;;;16.80;65.30;;;;;;5083097;28;20399;-82
2021/08/25 05:23:13;;;;;;;1.77;1.67;;;16.80;65.30;;;;;;5090682;28;20020;-80
2021/08/25 05:25:39;;;;;;;2.20;1.75;;;16.80;65.40;;;;;;5090931;28;20028;-81
2021/08/25 05:28:05;;;;;;;2.15;1.73;;;16.80;65.40;;;;;;5097088;28;20421;-80
2021/08/25 05:30:31;;;;;;;3.03;1.80;;;16.80;65.50;;;;;;5075798;28;20025;-80
2021/08/25 05:32:57;;;;;;;2.30;2.10;;;16.80;65.50;;;;;;5080840;28;20473;-84
2021/08/25 05:35:24;;;;;;;2.22;1.92;;;16.80;65.50;;;;;;5060812;28;20032;-82
2021/08/25 05:37:50;;;;;;;1.83;1.73;;;16.70;65.40;;;;;;5061633;28;20037;-80
2021/08/25 05:40:17;;;;;;;2.95;1.70;;;16.70;65.50;;;;;;5092197;28;20046;-80
2021/08/25 05:42:45;;;;;;;3.95;1.80;;;16.70;65.50;;;;;;5092040;28;20035;-80
2021/08/25 05:45:12;;;;;;;2.65;2.10;;;16.70;65.50;;;;;;5110910;28;20473;-82
2021/08/25 05:47:39;;;;;;;2.65;1.98;;;16.70;65.50;;;;;;5088665;28;20034;-80
2021/08/25 05:50:06;;;;;;;2.63;2.25;;;16.70;65.50;;;;;;5061932;28;20027;-80
2021/08/25 05:52:32;;;;;;;4.05;2.25;;;16.70;65.60;;;;;;5075877;28;20028;-80
2021/08/25 05:54:58;;;;;;;2.75;2.28;;;16.70;65.70;;;;;;5089601;28;20612;-78
2021/08/25 05:57:24;;;;;;;2.90;2.28;;;16.70;65.80;;;;;;5079111;28;20032;-78
2021/08/25 05:59:51;;;;;;;4.28;2.00;;;16.70;65.90;;;;;;5082777;28;20036;-78
2021/08/25 06:02:17;;;;;;;3.40;2.55;;;16.70;66.00;;;;;;5081506;28;20035;-78
2021/08/25 06:04:43;;;;;;;5.97;3.08;;;16.60;65.90;;;;;;5074406;28;20476;-84
2021/08/25 06:07:10;;;;;;;3.40;2.78;;;16.60;66.00;;;;;;5069191;28;20025;-81
2021/08/25 06:09:36;;;;;;;4.45;3.10;;;16.60;66.10;;;;;;5107933;28;20505;-81
2021/08/25 06:12:03;;;;;;;3.83;2.90;;;16.70;66.50;;;;;;5107106;28;20083;-81
2021/08/25 06:14:29;;;;;;;3.33;3.00;;;16.60;66.40;;;;;;5090047;28;20111;-81
2021/08/25 06:16:56;;;;;;;6.00;3.00;;;16.70;66.70;;;;;;5089257;28;20055;-80
2021/08/25 06:19:22;;;;;;;3.05;2.75;;;16.70;66.80;;;;;;5082703;28;20066;-83
2021/08/25 06:21:48;;;;;;;3.38;3.08;;;16.70;66.90;;;;;;5055432;28;20462;-81
2021/08/25 06:24:14;;;;;;;3.47;2.88;;;16.80;67.10;;;;;;5086084;28;20502;-80
2021/08/25 06:26:41;;;;;;;6.50;3.20;;;16.70;67.10;;;;;;5090117;28;20506;-80
2021/08/25 06:29:08;;;;;;;4.95;3.65;;;16.80;67.30;;;;;;5088633;28;20024;-79
2021/08/25 06:31:34;;;;;;;3.55;3.10;;;16.80;67.40;;;;;;5086898;28;20039;-80
2021/08/25 06:34:01;;;;;;;3.30;2.90;;;16.90;67.60;;;;;;5104840;28;20424;-80
2021/08/25 06:36:27;;;;;;;3.28;2.83;;;16.90;67.60;;;;;;5090285;28;20038;-81
2021/08/25 06:38:53;;;;;;;3.83;3.50;;;16.90;67.60;;;;;;5086687;28;20388;-79
2021/08/25 06:41:19;;;;;;;3.28;2.80;;;17.00;67.80;;;;;;5065669;28;20055;-80
2021/08/25 06:43:45;;;;;;;3.40;3.10;;;17.00;67.80;;;;;;5081149;28;20379;-80
2021/08/25 06:46:11;;;;;;;4.65;3.10;;;17.00;67.80;;;;;;5086396;28;20024;-80
2021/08/25 06:48:37;;;;;;;6.13;3.20;;;17.10;68.00;;;;;;5090447;28;20029;-82
2021/08/25 06:51:03;;;;;;;3.88;3.00;;;17.20;68.20;;;;;;5067784;28;20036;-80
2021/08/25 06:53:31;;;;;;;3.75;3.22;;;17.20;68.10;;;;;;5110540;27;20031;-80
2021/08/25 06:55:57;;;;;;;8.90;3.17;;;17.30;68.30;;;;;;5097300;28;20109;-79
2021/08/25 06:58:27;;;;;;;9.93;3.22;;;17.40;68.40;;;;;;5085231;28;20032;-79
2021/08/25 07:00:55;;;;;;;4.43;3.45;;;17.50;68.40;;;;;;5068786;28;20420;-80
2021/08/25 07:03:21;;;;;;;4.63;3.00;;;17.50;68.30;;;;;;5087363;28;20035;-84
2021/08/25 07:05:47;;;;;;;6.22;3.60;;;17.60;68.40;;;;;;5071024;28;20118;-79
2021/08/25 07:08:13;;;;;;;5.15;3.10;;;17.60;68.40;;;;;;5095309;28;20054;-79
2021/08/25 07:10:39;;;;;;;4.82;2.67;;;17.70;68.50;;;;;;5107254;28;20779;-80
2021/08/25 07:13:05;;;;;;;3.88;2.70;;;17.70;68.50;;;;;;5081079;28;20054;-81
2021/08/25 07:15:31;;;;;;;7.30;2.58;;;17.70;68.50;;;;;;5087365;28;20060;-81
2021/08/25 07:17:57;;;;;;;9.10;3.17;;;17.80;68.80;;;;;;5092808;28;20569;-80
2021/08/25 07:20:23;;;;;;;3.97;2.60;;;17.90;68.80;;;;;;5108245;28;20138;-79
2021/08/25 07:22:49;;;;;;;5.55;2.80;;;18.10;68.90;;;;;;5100995;28;20480;-80
2021/08/25 07:25:15;;;;;;;5.40;2.50;;;18.20;68.80;;;;;;5063046;28;20027;-80
2021/08/25 07:27:42;;;;;;;3.60;2.47;;;18.20;68.60;;;;;;5090696;28;20080;-80
2021/08/25 07:30:09;;;;;;;3.05;2.45;;;18.30;68.50;;;;;;5098115;28;20063;-79
2021/08/25 07:32:38;;;;;;;3.33;2.17;;;18.40;68.50;;;;;;5093459;28;20028;-81
2021/08/25 07:35:05;;;;;;;2.75;2.45;;;18.40;68.30;;;;;;5090080;28;20482;-79
2021/08/25 07:37:31;;;;;;;3.08;1.80;;;18.50;68.20;;;;;;5075331;28;20037;-79
2021/08/25 07:39:57;;;;;;;3.80;2.30;;;18.50;68.10;;;;;;5106555;28;20050;-80
2021/08/25 07:42:23;;;;;;;4.50;2.10;;;18.60;68.10;;;;;;5102953;28;20503;-80
2021/08/25 07:44:49;;;;;;;4.13;2.30;;;18.60;67.80;;;;;;5069842;28;20027;-80
2021/08/25 07:47:15;;;;;;;3.55;2.30;;;18.60;67.70;;;;;;5086946;28;20387;-79
2021/08/25 07:49:41;;;;;;;3.97;2.45;;;18.60;67.50;;;;;;5106173;28;20442;-79
2021/08/25 07:52:07;;;;;;;4.35;2.20;;;18.70;67.60;;;;;;5108040;28;20490;-78
2021/08/25 07:54:33;;;;;;;3.05;2.58;;;18.70;67.30;;;;;;5107988;28;20023;-78
2021/08/25 07:56:59;;;;;;;4.07;2.20;;;18.70;67.10;;;;;;5107970;28;20153;-79
2021/08/25 07:59:25;;;;;;;2.38;2.10;;;18.70;66.90;;;;;;5089264;28;20122;-79
2021/08/25 08:01:51;;;;;;;5.82;2.60;;;18.70;66.70;;;;;;5098525;28;20024;-81
2021/08/25 08:04:17;;;;;;;2.40;2.20;;;18.80;66.80;;;;;;5106796;28;20478;-79
2021/08/25 08:06:42;;;;;;;4.20;2.42;;;18.80;66.60;;;;;;5107852;28;20024;-79
2021/08/25 08:09:08;;;;;;;4.25;2.50;;;18.80;66.50;;;;;;5108430;28;20034;-81
2021/08/25 08:11:34;;;;;;;6.53;2.30;;;18.90;66.60;;;;;;5107757;28;20858;-81
2021/08/25 08:14:00;;;;;;;2.20;1.95;;;18.90;66.40;;;;;;5092453;28;20545;-80
2021/08/25 08:16:26;;;;;;;2.25;2.05;;;19.00;66.50;;;;;;5086556;28;20491;-86
2021/08/25 08:18:58;;;;;;;3.55;2.33;;;19.00;66.40;;;;;;5101214;28;20035;-84
2021/08/25 08:21:25;;;;;;;2.70;2.15;;;19.10;66.40;;;;;;5090257;28;20027;-82
2021/08/25 08:23:52;;;;;;;3.28;2.40;;;19.10;66.20;;;;;;5090952;28;20055;-83
2021/08/25 08:26:18;;;;;;;3.03;2.30;;;19.10;66.00;;;;;;5086307;28;20081;-81
2021/08/25 08:28:44;;;;;;;2.50;2.17;;;19.10;65.90;;;;;;5090081;28;20024;-84
2021/08/25 08:31:10;;;;;;;3.13;2.55;;;19.10;65.80;;;;;;5081483;28;20478;-84
2021/08/25 08:33:38;;;;;;;2.45;2.22;;;19.20;65.80;;;;;;5069935;28;20028;-83
2021/08/25 08:36:05;;;;;;;3.45;2.58;;;19.20;65.60;;;;;;5087855;28;20028;-84
2021/08/25 08:38:32;;;;;;;3.45;2.88;;;19.20;65.40;;;;;;5079108;28;20378;-84
2021/08/25 08:40:58;;;;;;;2.50;2.30;;;19.30;65.40;;;;;;5085143;28;20072;-83
2021/08/25 08:43:24;;;;;;;8.45;2.80;;;19.30;65.30;;;;;;5085765;28;20066;-84
2021/08/25 08:45:51;;;;;;;4.03;2.65;;;19.30;65.20;;;;;;5086020;28;20478;-83
2021/08/25 08:48:17;;;;;;;4.15;2.45;;;19.30;65.20;;;;;;5086168;28;20071;-84
2021/08/25 08:50:46;;;;;;;2.20;1.95;;;19.30;65.10;;;;;;5068957;28;20059;-84
2021/08/25 08:53:13;;;;;;;2.67;2.13;;;19.30;64.80;;;;;;5086198;28;20123;-85
2021/08/25 08:55:40;;;;;;;2.33;1.80;;;19.30;64.60;;;;;;5068890;28;20040;-84
2021/08/25 08:58:07;;;;;;;2.90;2.30;;;19.30;64.50;;;;;;5091528;28;20028;-84
2021/08/25 09:00:33;;;;;;;2.92;1.90;;;19.30;64.30;;;;;;5089921;28;20036;-84
2021/08/25 09:02:59;;;;;;;3.30;2.45;;;19.30;64.20;;;;;;5090104;28;20032;-87
2021/08/25 09:05:27;;;;;;;2.15;1.95;;;19.30;64.00;;;;;;5069590;28;20032;-83
2021/08/25 09:07:58;;;;;;;3.03;2.20;;;19.30;63.90;;;;;;5086288;28;20024;-84
2021/08/25 09:10:33;;;;;;;4.32;2.08;;;19.30;63.90;;;;;;5086357;28;20573;-86
2021/08/25 09:13:07;;;;;;;2.13;1.85;;;19.30;63.70;;;;;;5092957;28;20074;-84
2021/08/25 09:15:36;;;;;;;5.72;2.17;;;19.30;63.60;;;;;;5089411;28;20027;-83
2021/08/25 09:18:08;;;;;;;2.13;1.92;;;19.40;63.70;;;;;;5105582;28;20107;-85
2021/08/25 09:20:41;;;;;;;2.58;1.88;;;19.30;63.50;;;;;;5090107;28;20483;-85
2021/08/25 09:23:16;;;;;;;3.13;2.60;;;19.40;63.50;;;;;;5089476;28;20371;-83
2021/08/25 09:25:43;;;;;;;2.60;2.20;;;19.40;63.40;;;;;;5089365;28;20028;-84
2021/08/25 09:28:12;;;;;;;2.22;1.92;;;19.40;63.30;;;;;;5100358;28;20035;-85
2021/08/25 09:30:56;;;;;;;3.47;1.63;;;19.40;63.20;;;;;;5069215;28;20032;-84
2021/08/25 09:33:26;;;;;;;1.70;1.45;;;19.40;63.00;;;;;;5056531;28;20094;-84
2021/08/25 09:35:56;;;;;;;2.15;1.92;;;19.40;63.00;;;;;;5065691;28;20106;-83
2021/08/25 09:38:23;;;;;;;2.85;1.60;;;19.40;62.80;;;;;;5084038;28;20055;-84
2021/08/25 09:40:55;;;;;;;3.70;2.10;;;19.50;62.90;;;;;;5106992;28;20189;-83
2021/08/25 09:43:33;;;;;;;2.42;2.00;;;19.50;62.70;;;;;;5095743;28;20028;-83
2021/08/25 09:46:19;;;;;;;2.60;1.73;;;19.50;62.60;;;;;;5085367;28;20028;-82
2021/08/25 09:48:51;;;;;;;2.50;2.30;;;19.60;62.60;;;;;;5100389;28;20028;-82
2021/08/25 09:51:21;;;;;;;2.67;2.22;;;19.60;63.10;;;;;;5092249;28;20028;-84
2021/08/25 09:53:49;;;;;;;2.63;2.03;;;19.70;62.50;;;;;;5094618;28;20454;-83
2021/08/25 09:56:27;;;;;;;3.03;1.95;;;19.80;62.50;;;;;;5088610;28;20135;-84
2021/08/25 09:58:55;;;;;;;2.60;1.80;;;19.80;62.30;;;;;;5101604;28;20031;-84
2021/08/25 10:01:21;;;;;;;2.28;2.08;;;19.80;62.10;;;;;;5104203;28;20482;-83
2021/08/25 10:03:48;;;;;;;2.08;1.88;;;19.90;62.10;;;;;;5071565;28;20028;-83
2021/08/25 10:06:16;;;;;;;2.13;1.92;;;20.00;62.10;;;;;;5072071;28;20113;-82
2021/08/25 10:08:43;;;;;;;2.00;1.80;;;20.00;61.90;;;;;;5090562;28;20024;-83
2021/08/25 10:11:10;;;;;;;3.17;2.45;;;20.10;61.90;;;;;;5090310;28;20051;-81
2021/08/25 10:13:36;;;;;;;3.83;2.70;;;20.10;61.70;;;;;;5102783;28;20179;-83
2021/08/25 10:16:03;;;;;;;2.60;2.30;;;20.20;61.70;;;;;;5092437;28;20027;-84
2021/08/25 10:18:42;;;;;;;5.47;3.75;;;20.20;61.60;;;;;;5079120;28;20128;-83
2021/08/25 10:21:42;;;;;;;4.63;4.20;;;20.30;61.70;;;;;;5070848;28;20086;-85
2021/08/25 10:24:08;;;;;;;5.15;4.65;;;20.30;61.70;;;;;;5026134;28;20124;-84
2021/08/25 10:26:59;;;;;;;5.60;4.82;;;20.40;61.80;;;;;;5070703;28;20040;-84
2021/08/25 10:29:26;;;;;;;6.05;5.40;;;20.50;61.90;;;;;;5068671;28;20506;-82
2021/08/25 10:31:52;;;;;;;8.05;6.43;;;20.60;62.00;;;;;;5071045;28;20025;-80
2021/08/25 10:34:27;;;;;;;11.35;7.95;;;20.70;62.00;;;;;;5089331;28;20040;-83
2021/08/25 10:37:19;;;;;;;14.63;7.85;;;20.70;61.70;;;;;;5088235;28;20028;-83
2021/08/25 10:39:45;;;;;;;17.42;8.55;;;20.80;61.60;;;;;;5108692;28;20024;-82
2021/08/25 10:42:12;;;;;;;8.15;6.75;;;20.80;61.50;;;;;;5091921;28;20032;-84
2021/08/25 10:44:40;;;;;;;10.68;6.72;;;20.90;61.60;;;;;;5066486;28;20476;-82
2021/08/25 10:47:15;;;;;;;16.38;8.30;;;20.90;61.50;;;;;;5068642;28;20090;-85
2021/08/25 10:49:44;;;;;;;7.00;4.97;;;20.90;61.30;;;;;;5088124;28;20119;-84
2021/08/25 10:52:28;;;;;;;6.25;5.00;;;21.00;61.50;;;;;;5069376;28;20032;-85
2021/08/25 10:54:55;;;;;;;;;;;21.10;61.40;;;;;;5090232;28;20081;-85
2021/08/25 10:57:23;;;;;;;8.07;5.00;;;21.20;61.70;;;;;;5088968;28;20378;-82
2021/08/25 10:59:50;;;;;;;7.28;4.82;;;21.30;61.50;;;;;;5107099;28;20040;-82
2021/08/25 11:02:16;;;;;;;4.85;4.32;;;21.40;61.20;;;;;;5078209;28;20028;-83
2021/08/25 11:04:42;;;;;;;6.97;5.15;;;21.50;61.20;;;;;;5087641;28;20028;-84
2021/08/25 11:07:10;;;;;;;12.80;5.40;;;21.60;61.30;;;;;;5067094;28;20020;-84
2021/08/25 11:09:44;;;;;;;6.15;4.45;;;21.70;61.20;;;;;;5082323;28;20040;-84
2021/08/25 11:12:13;;;;;;;4.05;3.65;;;21.70;60.80;;;;;;5089418;28;20048;-86
2021/08/25 11:14:51;;;;;;;4.65;4.13;;;21.80;60.80;;;;;;5108020;28;20024;-84
2021/08/25 11:17:28;;;;;;;5.18;4.30;;;21.90;60.80;;;;;;5091643;28;20036;-86
2021/08/25 11:19:54;;;;;;;4.32;3.63;;;21.90;60.40;;;;;;5091623;28;20043;-83
2021/08/25 11:22:34;;;;;;;3.50;3.20;;;22.00;60.50;;;;;;5106889;28;20047;-84
2021/08/25 11:25:17;;;;;;;4.22;3.30;;;22.10;60.90;;;;;;5070900;28;20035;-85
2021/08/25 11:27:49;;;;;;;;;;;22.10;60.00;;;;;;5085916;28;20423;-84
2021/08/25 11:30:19;;;;;;;4.63;3.38;;;22.20;60.60;;;;;;5096288;28;20075;-88
2021/08/25 11:32:55;;;;;;;4.65;3.45;;;22.20;60.30;;;;;;5086701;28;20566;-86
2021/08/25 11:35:33;;;;;;;3.50;2.55;;;22.20;60.00;;;;;;5087381;28;20319;-82
2021/08/25 11:38:08;;;;;;;3.40;3.08;;;22.30;59.80;;;;;;5073929;28;20168;-84
2021/08/25 11:40:39;;;;;;;2.60;2.30;;;22.30;59.70;;;;;;5077594;28;20047;-83
2021/08/25 11:43:20;;;;;;;2.83;2.33;;;22.30;59.40;;;;;;5069517;28;20031;-85
2021/08/25 11:45:51;;;;;;;4.30;2.85;;;22.40;59.00;;;;;;5088270;28;20409;-83
2021/08/25 11:48:17;;;;;;;2.97;2.70;;;22.40;58.90;;;;;;5096942;28;20024;-81
2021/08/25 11:50:47;;;;;;;3.60;2.70;;;22.40;58.90;;;;;;5110803;28;20027;-82
2021/08/25 11:53:25;;;;;;;5.47;3.05;;;22.40;58.60;;;;;;5099262;28;20027;-83
2021/08/25 11:55:53;;;;;;;3.72;2.80;;;22.50;58.70;;;;;;5087117;28;20032;-81
2021/08/25 11:58:33;;;;;;;3.80;2.90;;;22.50;58.40;;;;;;5078189;28;20104;-83
2021/08/25 12:01:00;;;;;;;3.85;3.22;;;22.50;58.00;;;;;;5088117;28;20502;-84
2021/08/25 12:03:39;;;;;;;3.03;2.40;;;22.60;58.30;;;;;;5087073;28;20078;-82
2021/08/25 12:06:05;;;;;;;3.55;2.58;;;22.60;57.90;;;;;;5087069;28;20036;-83
2021/08/25 12:08:43;;;;;;;2.70;2.35;;;22.60;57.90;;;;;;5095250;28;20035;-82
2021/08/25 12:11:10;;;;;;;3.22;2.60;;;22.60;57.60;;;;;;5107683;28;20104;-81
2021/08/25 12:13:38;;;;;;;3.55;2.53;;;22.70;57.90;;;;;;5100895;28;20110;-94
2021/08/25 12:16:11;;;;;;;4.22;2.92;;;22.90;58.20;;;;;;5091076;28;20486;-80
2021/08/25 12:18:55;;;;;;;3.45;2.45;;;23.00;58.30;;;;;;5098242;28;20126;-86
2021/08/25 12:21:36;;;;;;;3.97;2.80;;;23.20;58.40;;;;;;5110401;28;20040;-84
2021/08/25 12:24:10;;;;;;;3.25;2.28;;;23.40;58.50;;;;;;5067858;28;20029;-84
2021/08/25 12:26:52;;;;;;;4.45;2.90;;;23.50;58.50;;;;;;5087233;28;20039;-82
2021/08/25 12:29:28;;;;;;;3.87;2.90;;;23.70;58.80;;;;;;5095832;28;20031;-83
2021/08/25 12:31:59;;;;;;;5.82;3.40;;;23.80;58.70;;;;;;5080150;28;20036;-82
2021/08/25 12:34:26;;;;;;;3.63;2.80;;;23.90;58.70;;;;;;5092427;28;20540;-88
2021/08/25 12:36:53;;;;;;;3.40;2.33;;;24.00;58.80;;;;;;5073673;28;20077;-85
2021/08/25 12:39:23;;;;;;;4.03;2.78;;;24.20;59.10;;;;;;5071415;28;20037;-85
2021/08/25 12:41:51;;;;;;;4.00;2.80;;;24.30;59.10;;;;;;5070190;28;20052;-81
2021/08/25 12:44:18;;;;;;;3.38;2.75;;;24.40;59.00;;;;;;5089315;28;20105;-85
2021/08/25 12:47:14;;;;;;;3.55;2.65;;;24.50;59.00;;;;;;5088616;28;20032;-91
2021/08/25 12:49:40;;;;;;;5.35;2.60;;;24.60;59.00;;;;;;5074438;28;20036;-83
2021/08/25 12:52:06;;;;;;;5.38;2.45;;;24.60;59.00;;;;;;5088602;28;20028;-90
2021/08/25 12:54:32;;;;;;;3.65;2.20;;;24.70;59.00;;;;;;5108141;28;20026;-82